createdAt,value
2022-10-07T00:00:46.657Z,32.90
2022-10-07T00:05:04.119Z,35.20
2022-10-07T00:09:07.737Z,35.30
2022-10-07T00:13:12.399Z,36.90
2022-10-07T00:17:15.961Z,31.40
2022-10-07T00:21:20.524Z,31.60
2022-10-07T00:25:24.238Z,36.60
2022-10-07T00:29:27.722Z,35.40
2022-10-07T00:33:33.932Z,31.60
2022-10-07T00:37:43.318Z,33.10
2022-10-07T00:41:51.633Z,29.70
2022-10-07T00:45:58.035Z,28.50
2022-10-07T00:50:09.814Z,32.40
2022-10-07T00:54:17.490Z,35.20
2022-10-07T00:58:20.956Z,33.40
2022-10-07T01:02:26.376Z,31.30
2022-10-07T01:06:30.673Z,35.30
2022-10-07T01:10:44.916Z,30.80
2022-10-07T01:15:09.618Z,28.70
2022-10-07T01:19:38.590Z,33.00
2022-10-07T01:24:11.618Z,33.90
2022-10-07T01:28:21.598Z,36.80
2022-10-07T01:32:37.285Z,31.10
2022-10-07T01:36:43.639Z,26.70
2022-10-07T01:40:56.569Z,27.10
2022-10-07T01:45:00.990Z,138.40
2022-10-07T01:49:07.431Z,41.30
2022-10-07T01:53:26.901Z,36.90
2022-10-07T01:57:47.957Z,33.30
2022-10-07T02:02:04.649Z,26.30
2022-10-07T02:06:25.067Z,24.40
2022-10-07T02:10:35.916Z,24.60
2022-10-07T02:14:46.362Z,22.40
2022-10-07T02:18:53.002Z,24.90
2022-10-07T02:23:00.240Z,20.90
2022-10-07T02:27:11.356Z,27.70
2022-10-07T02:31:18.516Z,21.80
2022-10-07T02:35:51.489Z,16.00
2022-10-07T02:39:56.499Z,22.30
2022-10-07T02:44:31.363Z,20.30
2022-10-07T02:48:42.374Z,20.60
2022-10-07T02:52:46.769Z,15.50
2022-10-07T02:56:51.859Z,14.90
2022-10-07T03:00:59.948Z,18.30
2022-10-07T03:05:04.014Z,19.20
2022-10-07T03:09:08.438Z,18.80
2022-10-07T03:13:12.377Z,20.20
2022-10-07T03:17:18.130Z,16.50
2022-10-07T03:21:22.459Z,13.80
2022-10-07T03:25:27.661Z,19.90
2022-10-07T03:29:35.014Z,17.90
2022-10-07T03:33:39.305Z,15.20
2022-10-07T03:37:43.529Z,16.20
2022-10-07T03:41:49.243Z,18.60
2022-10-07T03:45:52.996Z,15.80
2022-10-07T03:49:58.118Z,50.70
2022-10-07T03:54:02.122Z,73.00
2022-10-07T03:58:07.822Z,33.90
2022-10-07T04:02:11.396Z,18.40
2022-10-07T04:06:16.925Z,20.40
2022-10-07T04:10:20.947Z,34.80
2022-10-07T04:14:25.770Z,30.00
2022-10-07T04:18:29.325Z,26.50
2022-10-07T04:22:32.977Z,33.30
2022-10-07T04:26:36.499Z,21.10
2022-10-07T04:30:40.918Z,22.60
2022-10-07T04:34:44.491Z,17.50
2022-10-07T04:38:51.545Z,19.00
2022-10-07T04:43:16.704Z,12.70
2022-10-07T04:47:20.832Z,23.70
2022-10-07T04:51:24.787Z,13.80
2022-10-07T04:55:30.322Z,16.50
2022-10-07T04:59:34.546Z,16.70
2022-10-07T05:03:40.178Z,18.80
2022-10-07T05:07:44.608Z,13.20
2022-10-07T05:11:49.341Z,17.40
2022-10-07T05:15:58.148Z,13.90
2022-10-07T05:20:02.393Z,19.20
2022-10-07T05:24:06.009Z,16.70
2022-10-07T05:28:13.126Z,14.60
2022-10-07T05:32:17.515Z,13.20
2022-10-07T05:36:22.382Z,11.40
2022-10-07T05:40:27.211Z,11.80
2022-10-07T05:44:32.593Z,17.20
2022-10-07T05:48:39.582Z,12.20
2022-10-07T05:52:45.551Z,11.60
2022-10-07T05:56:49.786Z,19.00
2022-10-07T06:00:58.971Z,12.10
2022-10-07T06:05:06.495Z,13.70
2022-10-07T06:09:30.371Z,12.00
2022-10-07T06:13:35.926Z,14.50
2022-10-07T06:17:45.060Z,16.60
2022-10-07T06:21:50.971Z,17.40
2022-10-07T06:25:57.099Z,15.20
2022-10-07T06:30:01.963Z,12.00
2022-10-07T06:34:06.155Z,13.00
2022-10-07T06:38:09.877Z,12.80
2022-10-07T06:42:13.469Z,13.80
2022-10-07T06:46:55.023Z,19.50
2022-10-07T06:50:59.537Z,13.70
2022-10-07T06:55:04.974Z,19.20
2022-10-07T06:59:08.736Z,18.10
2022-10-07T07:03:18.950Z,23.10
2022-10-07T07:07:24.222Z,13.60
2022-10-07T07:11:37.184Z,19.30
2022-10-07T07:15:59.233Z,20.80
2022-10-07T07:20:05.299Z,22.90
2022-10-07T07:24:09.119Z,20.10
2022-10-07T07:28:15.678Z,19.30
2022-10-07T07:32:19.409Z,15.70
2022-10-07T07:36:25.505Z,18.40
2022-10-07T07:40:29.767Z,18.20
2022-10-07T07:44:34.971Z,21.20
2022-10-07T07:48:39.531Z,17.00
2022-10-07T07:52:42.959Z,19.10
2022-10-07T07:56:46.485Z,17.20
2022-10-07T08:01:06.347Z,14.50
2022-10-07T08:05:10.499Z,14.30
2022-10-07T08:09:14.038Z,7.60
2022-10-07T08:13:18.995Z,8.70
2022-10-07T08:17:22.666Z,10.70
2022-10-07T08:21:33.131Z,7.90
2022-10-07T08:25:37.064Z,12.50
2022-10-07T08:29:41.211Z,10.50
2022-10-07T08:33:48.898Z,9.30
2022-10-07T08:37:52.345Z,10.40
2022-10-07T08:42:08.826Z,9.20
2022-10-07T08:46:16.536Z,10.00
2022-10-07T08:50:32.249Z,9.00
2022-10-07T08:54:35.515Z,8.40
2022-10-07T08:58:44.469Z,7.50
2022-10-07T09:03:09.398Z,5.80
2022-10-07T09:07:20.268Z,12.70
2022-10-07T09:11:26.243Z,6.40
2022-10-07T09:15:53.394Z,14.20
2022-10-07T09:20:06.789Z,7.50
2022-10-07T09:24:26.205Z,7.00
2022-10-07T09:28:32.934Z,8.30
2022-10-07T09:32:42.495Z,5.50
2022-10-07T09:37:21.764Z,7.40
2022-10-07T09:45:36.961Z,5.10
2022-10-07T09:49:43.870Z,4.70
2022-10-07T09:54:05.677Z,6.40
2022-10-07T09:58:32.590Z,11.00
2022-10-07T10:02:36.168Z,9.60
2022-10-07T10:06:51.985Z,8.40
2022-10-07T10:11:04.064Z,10.60
2022-10-07T10:15:26.145Z,5.60
2022-10-07T10:19:31.540Z,9.90
2022-10-07T10:23:41.745Z,7.20
2022-10-07T10:27:50.952Z,9.90
2022-10-07T10:32:11.423Z,5.20
2022-10-07T10:37:26.272Z,5.00
2022-10-07T10:41:30.926Z,6.00
2022-10-07T10:46:00.833Z,11.80
2022-10-07T10:50:43.192Z,10.40
2022-10-07T10:54:48.115Z,7.10
2022-10-07T10:58:58.951Z,4.10
2022-10-07T11:03:32.303Z,3.80
2022-10-07T11:07:53.705Z,7.10
2022-10-07T11:11:59.804Z,3.30
2022-10-07T11:16:23.342Z,3.00
2022-10-07T11:20:47.649Z,5.40
2022-10-07T11:24:56.591Z,3.60
2022-10-07T11:29:03.908Z,4.00
2022-10-07T11:33:19.856Z,4.20
2022-10-07T11:37:43.438Z,4.10
2022-10-07T11:41:52.157Z,4.90
2022-10-07T11:45:59.920Z,4.80
2022-10-07T11:50:09.123Z,3.20
2022-10-07T11:54:15.706Z,8.60
2022-10-07T11:58:29.046Z,5.60
2022-10-07T12:02:31.137Z,6.90
2022-10-07T12:06:33.069Z,7.10
2022-10-07T12:10:35.252Z,2.80
2022-10-07T12:14:42.982Z,3.40
2022-10-07T12:19:05.969Z,6.30
2022-10-07T12:23:25.342Z,4.10
2022-10-07T12:27:54.320Z,3.80
2022-10-07T12:31:56.788Z,8.60
2022-10-07T12:36:20.470Z,6.00
2022-10-07T12:40:29.475Z,5.50
2022-10-07T12:44:39.278Z,8.00
2022-10-07T12:49:02.358Z,6.30
2022-10-07T12:53:04.537Z,5.30
2022-10-07T12:57:17.868Z,5.70
2022-10-07T13:02:19.121Z,4.50
2022-10-07T13:06:30.241Z,5.10
2022-10-07T13:11:00.165Z,5.90
2022-10-07T13:15:13.869Z,9.50
2022-10-07T13:19:15.770Z,2.60
2022-10-07T13:23:26.053Z,2.70
2022-10-07T13:27:31.952Z,3.50
2022-10-07T13:31:35.373Z,4.20
2022-10-07T13:35:39.634Z,2.90
2022-10-07T13:39:41.938Z,4.20
2022-10-07T13:43:44.934Z,2.80
2022-10-07T13:47:47.234Z,10.10
2022-10-07T13:51:52.907Z,8.70
2022-10-07T13:56:18.876Z,4.40
2022-10-07T14:00:21.002Z,2.70
2022-10-07T14:04:32.617Z,4.00
2022-10-07T14:08:50.208Z,4.40
2022-10-07T14:12:59.549Z,4.40
2022-10-07T14:17:08.800Z,4.40
2022-10-07T14:21:16.993Z,5.40
2022-10-07T14:25:22.767Z,12.70
2022-10-07T14:29:27.729Z,4.40
2022-10-07T14:33:54.871Z,5.50
2022-10-07T14:38:24.979Z,7.20
2022-10-07T14:42:31.690Z,12.20
2022-10-07T14:46:35.825Z,7.00
2022-10-07T14:50:39.184Z,5.30
2022-10-07T14:54:41.321Z,4.10
2022-10-07T14:58:43.289Z,7.40
2022-10-07T15:02:46.081Z,5.00
2022-10-07T15:06:51.224Z,2.60
2022-10-07T15:10:53.131Z,3.50
2022-10-07T15:14:54.999Z,2.80
2022-10-07T15:18:57.052Z,2.90
2022-10-07T15:23:00.104Z,6.20
2022-10-07T15:27:02.134Z,4.60
2022-10-07T15:31:09.398Z,3.60
2022-10-07T15:35:11.957Z,4.00
2022-10-07T15:39:13.832Z,5.00
2022-10-07T15:43:15.811Z,8.10
2022-10-07T15:47:17.981Z,8.20
2022-10-07T15:51:19.928Z,4.70
2022-10-07T15:55:21.927Z,8.80
2022-10-07T15:59:25.278Z,3.40
2022-10-07T16:03:29.018Z,11.00
2022-10-07T16:07:31.252Z,8.80
2022-10-07T16:11:34.088Z,6.60
2022-10-07T16:15:36.295Z,12.90
2022-10-07T16:19:38.196Z,15.30
2022-10-07T16:23:45.334Z,15.50
2022-10-07T16:28:05.911Z,14.70
2022-10-07T16:32:11.349Z,11.30
2022-10-07T16:36:13.971Z,11.80
2022-10-07T16:40:15.937Z,27.40
2022-10-07T16:44:19.077Z,17.40
2022-10-07T16:48:21.343Z,16.90
2022-10-07T16:52:25.256Z,13.00
2022-10-07T16:56:28.139Z,15.60
2022-10-07T17:00:30.922Z,11.60
2022-10-07T17:04:33.580Z,10.40
2022-10-07T17:08:41.112Z,13.50
2022-10-07T17:12:45.733Z,18.80
2022-10-07T17:16:55.409Z,13.00
2022-10-07T17:20:59.122Z,24.40
2022-10-07T17:25:03.790Z,19.40
2022-10-07T17:29:09.711Z,36.50
2022-10-07T17:33:15.071Z,31.90
2022-10-07T17:37:17.702Z,19.90
2022-10-07T17:41:34.436Z,33.10
2022-10-07T17:45:37.420Z,35.30
2022-10-07T17:49:39.719Z,37.50
2022-10-07T17:53:42.743Z,39.20
2022-10-07T17:57:46.123Z,23.40
2022-10-07T18:01:48.274Z,20.20
2022-10-07T18:05:52.085Z,28.00
2022-10-07T18:09:53.992Z,42.60
2022-10-07T18:14:14.454Z,50.60
2022-10-07T18:18:16.456Z,31.80
2022-10-07T18:22:19.164Z,32.10
2022-10-07T18:26:21.189Z,31.00
2022-10-07T18:30:23.075Z,29.40
2022-10-07T18:34:25.020Z,36.30
2022-10-07T18:38:38.858Z,26.60
2022-10-07T18:42:41.505Z,34.00
2022-10-07T18:46:43.489Z,42.80
2022-10-07T18:50:54.596Z,30.10
2022-10-07T18:54:56.547Z,31.10
2022-10-07T18:58:58.409Z,29.10
2022-10-07T19:03:00.387Z,30.60
2022-10-07T19:07:02.362Z,41.50
2022-10-07T19:11:08.218Z,26.00
2022-10-07T19:15:10.297Z,21.80
2022-10-07T19:19:18.057Z,24.40
2022-10-07T19:23:19.915Z,19.10
2022-10-07T19:27:21.809Z,20.70
2022-10-07T19:31:39.964Z,17.30
2022-10-07T19:35:42.244Z,18.00
2022-10-07T19:39:44.268Z,21.10
2022-10-07T19:43:47.980Z,16.50
2022-10-07T19:47:49.805Z,16.50
2022-10-07T19:51:52.985Z,14.20
2022-10-07T19:55:55.667Z,14.50
2022-10-07T19:59:57.683Z,13.70
2022-10-07T20:04:03.031Z,19.20
2022-10-07T20:08:09.951Z,17.80
2022-10-07T20:12:13.565Z,13.90
2022-10-07T20:16:19.265Z,20.20
2022-10-07T20:20:21.384Z,11.30
2022-10-07T20:24:23.486Z,12.70
2022-10-07T20:28:25.597Z,10.70
2022-10-07T20:32:30.834Z,9.70
2022-10-07T20:36:37.852Z,15.20
2022-10-07T20:41:18.667Z,16.20
2022-10-07T20:45:20.706Z,22.50
2022-10-07T20:49:25.608Z,24.10
2022-10-07T20:53:27.474Z,28.30
2022-10-07T20:57:33.377Z,27.50
2022-10-07T21:01:37.760Z,19.60
2022-10-07T21:05:39.702Z,22.60
2022-10-07T21:09:41.686Z,20.20
2022-10-07T21:13:43.610Z,28.20
2022-10-07T21:17:48.429Z,26.00
2022-10-07T21:21:51.235Z,19.10
2022-10-07T21:25:53.129Z,22.50
2022-10-07T21:29:55.681Z,29.80
2022-10-07T21:34:01.048Z,41.10
2022-10-07T21:38:02.919Z,31.30
2022-10-07T21:42:04.935Z,26.30
2022-10-07T21:46:07.916Z,23.60
2022-10-07T21:50:10.896Z,25.90
2022-10-07T21:54:14.724Z,18.90
2022-10-07T21:58:17.072Z,21.10
2022-10-07T22:02:19.493Z,21.00
2022-10-07T22:06:43.065Z,14.60
2022-10-07T22:10:45.097Z,17.70
2022-10-07T22:14:47.082Z,17.00
2022-10-07T22:18:51.404Z,12.60
2022-10-07T22:22:56.659Z,17.20
2022-10-07T22:27:03.068Z,23.30
2022-10-07T22:31:06.909Z,18.40
2022-10-07T22:35:29.517Z,13.30
2022-10-07T22:39:31.496Z,14.20
2022-10-07T22:43:37.878Z,13.60
2022-10-07T22:47:39.817Z,15.90
2022-10-07T22:51:42.573Z,12.80
2022-10-07T22:55:44.700Z,12.10
2022-10-07T22:59:46.567Z,12.90
2022-10-07T23:03:48.950Z,13.40
2022-10-07T23:07:50.904Z,12.90
2022-10-07T23:11:52.824Z,18.10
2022-10-07T23:16:00.001Z,14.50
2022-10-07T23:20:02.704Z,14.40
2022-10-07T23:24:08.135Z,16.10
2022-10-07T23:28:10.304Z,16.10
2022-10-07T23:32:12.359Z,15.00
2022-10-07T23:36:16.155Z,12.70
2022-10-07T23:40:18.025Z,14.70
2022-10-07T23:44:20.082Z,16.20
2022-10-07T23:48:22.492Z,21.70
2022-10-07T23:52:24.475Z,15.50
2022-10-07T23:56:26.961Z,16.60
